Time;durP1;ratioP1;P1;durP2;ratioP2;P2;SDS_P1;SDS_P2;PMS_P1;PMS_P2;Temp;Humidity;BMP_temperature;BMP_pressure;BME280_temperature;BME280_humidity;BME280_pressure;Samples;Min_cycle;Max_cycle;Signal;HPM_P1;HPM_P2
2024/01/19 00:02:10;;;;;;;5.35;2.40;;;-1.20;99.90;;;0.34;100.00;100165.09;4958950;28;20047;-80
2024/01/19 00:04:36;;;;;;;6.35;2.70;;;-1.20;99.90;;;0.31;100.00;100168.13;4960257;28;20035;-79
2024/01/19 00:07:02;;;;;;;5.28;2.25;;;-1.20;99.90;;;0.32;100.00;100177.84;4945423;29;20081;-79
2024/01/19 00:09:28;;;;;;;4.43;2.30;;;-1.20;99.90;;;0.26;100.00;100179.31;4963608;28;20066;-79
2024/01/19 00:11:54;;;;;;;7.38;3.08;;;-1.10;99.90;;;0.31;100.00;100186.91;4954245;28;20198;-80
2024/01/19 00:14:19;;;;;;;8.35;2.45;;;-1.10;99.90;;;0.39;100.00;100184.25;4946789;29;20043;-79
2024/01/19 00:16:45;;;;;;;6.80;2.05;;;-1.00;99.90;;;0.27;100.00;100186.38;4942026;29;20480;-79
2024/01/19 00:19:11;;;;;;;5.85;1.95;;;-1.10;99.90;;;0.27;100.00;100199.78;4941343;28;20050;-79
2024/01/19 00:21:46;;;;;;;5.70;2.28;;;-1.00;99.90;;;0.32;100.00;100188.59;4955794;28;20035;-79
2024/01/19 00:24:13;;;;;;;5.28;2.30;;;-1.10;99.90;;;0.20;100.00;100190.72;4942305;28;20831;-78
2024/01/19 00:26:40;;;;;;;7.97;2.50;;;-1.10;99.90;;;0.16;100.00;100197.41;4957543;28;20388;-79
2024/01/19 00:29:07;;;;;;;5.53;2.10;;;-1.10;99.90;;;0.33;100.00;100198.31;4941483;29;20780;-78
2024/01/19 00:31:34;;;;;;;4.85;1.90;;;-1.10;99.90;;;0.23;100.00;100200.25;4945637;29;20039;-79
2024/01/19 00:34:00;;;;;;;4.15;1.92;;;-1.10;99.90;;;0.16;100.00;100193.84;4936734;29;20610;-79
2024/01/19 00:36:25;;;;;;;4.13;2.10;;;-1.20;99.90;;;0.25;100.00;100209.00;4951320;28;20127;-79
2024/01/19 00:38:52;;;;;;;6.88;2.10;;;-1.20;99.90;;;0.31;100.00;100211.06;4940477;29;20035;-79
2024/01/19 00:41:18;;;;;;;6.55;2.45;;;-1.20;99.90;;;0.14;100.00;100194.03;4936942;28;20499;-79
2024/01/19 00:43:44;;;;;;;7.60;2.42;;;-1.30;99.90;;;0.11;100.00;100222.00;4935296;29;20036;-79
2024/01/19 00:46:11;;;;;;;5.88;2.25;;;-1.30;99.90;;;0.05;100.00;100208.38;4949089;29;20043;-79
2024/01/19 00:48:37;;;;;;;6.38;2.00;;;-1.30;99.90;;;-0.13;100.00;100214.66;4941226;29;20038;-79
2024/01/19 00:51:03;;;;;;;5.13;2.08;;;-1.40;99.90;;;0.02;100.00;100214.06;4943601;29;20036;-79
2024/01/19 00:53:29;;;;;;;4.53;2.00;;;-1.40;99.90;;;0.01;100.00;100226.66;4944995;28;20055;-79
2024/01/19 00:55:55;;;;;;;4.88;2.30;;;-1.40;99.90;;;-0.05;100.00;100220.06;4962809;28;20090;-78
2024/01/19 00:58:21;;;;;;;7.88;2.60;;;-1.50;99.90;;;-0.09;100.00;100226.75;4946551;29;20039;-77
2024/01/19 01:00:46;;;;;;;5.82;2.50;;;-1.40;99.90;;;-0.26;100.00;100230.31;4939904;29;20032;-78
2024/01/19 01:03:25;;;;;;;5.25;2.88;;;-1.50;99.90;;;-0.22;100.00;100234.38;4943437;29;20419;-78
2024/01/19 01:05:56;;;;;;;5.80;3.38;;;-1.40;99.90;;;-0.18;100.00;100236.59;4951022;29;20035;-78
2024/01/19 01:08:24;;;;;;;8.07;3.10;;;-1.50;99.90;;;-0.31;100.00;100233.44;4953913;28;20070;-78
2024/01/19 01:10:49;;;;;;;;;;;-1.50;99.90;;;-0.23;100.00;100241.56;4961880;28;20044;-78
2024/01/19 01:13:15;;;;;;;11.20;5.65;;;-1.50;99.90;;;-0.15;100.00;100249.66;4944424;28;19926;-78
2024/01/19 01:15:41;;;;;;;10.55;4.05;;;-1.40;99.90;;;-0.16;100.00;100245.31;4939654;29;20111;-79
2024/01/19 01:18:07;;;;;;;7.75;3.75;;;-1.40;99.90;;;-0.20;100.00;100253.81;4934500;29;20039;-78
2024/01/19 01:20:33;;;;;;;8.25;4.15;;;-1.30;99.90;;;-0.01;100.00;100260.81;4942059;29;20027;-78
2024/01/19 01:22:58;;;;;;;8.10;4.40;;;-1.20;99.90;;;-0.04;100.00;100255.78;4935974;29;20403;-78
2024/01/19 01:25:24;;;;;;;7.55;4.25;;;-1.20;99.90;;;-0.09;100.00;100260.78;4950266;28;20131;-78
2024/01/19 01:27:50;;;;;;;10.57;4.70;;;-1.20;99.90;;;0.11;100.00;100258.72;4944631;28;20031;-78
2024/01/19 01:30:15;;;;;;;8.35;4.75;;;-1.10;99.90;;;0.26;100.00;100277.75;4953482;28;20047;-78
2024/01/19 01:32:41;;;;;;;9.85;5.20;;;-1.00;99.90;;;0.21;100.00;100270.19;4951130;28;20543;-78
2024/01/19 01:35:07;;;;;;;11.48;4.78;;;-1.00;99.90;;;0.22;100.00;100273.72;4935467;29;20051;-78
2024/01/19 01:37:33;;;;;;;8.45;5.18;;;-1.00;99.90;;;0.13;100.00;100270.13;4941494;29;20035;-79
2024/01/19 01:39:58;;;;;;;12.25;5.18;;;-1.00;99.90;;;0.19;100.00;100272.22;4936644;29;20039;-78
2024/01/19 01:42:24;;;;;;;15.68;5.30;;;-1.00;99.90;;;0.12;100.00;100269.31;4945382;28;20041;-79
2024/01/19 01:44:50;;;;;;;10.43;5.43;;;-1.00;99.90;;;0.08;100.00;100286.72;4934260;29;20036;-78
2024/01/19 01:47:16;;;;;;;9.68;5.40;;;-1.00;99.90;;;0.13;100.00;100289.75;4949990;28;20127;-78
2024/01/19 01:49:42;;;;;;;11.02;6.45;;;-0.90;99.90;;;0.17;100.00;100281.41;4940520;29;20031;-78
2024/01/19 01:52:09;;;;;;;9.82;5.80;;;-0.90;99.90;;;0.18;100.00;100283.09;4946140;28;20408;-78
2024/01/19 01:54:35;;;;;;;9.10;5.80;;;-0.90;99.90;;;0.07;100.00;100279.66;4945967;28;20051;-79
2024/01/19 01:57:02;;;;;;;12.25;5.40;;;-0.90;99.90;;;0.18;100.00;100280.41;4958098;28;20061;-79
2024/01/19 01:59:29;;;;;;;11.40;6.33;;;-1.00;99.90;;;0.09;100.00;100282.19;4956321;28;20031;-78
2024/01/19 02:01:56;;;;;;;10.10;6.10;;;-0.90;99.90;;;-0.01;100.00;100290.31;4947002;29;20046;-80
2024/01/19 02:04:24;;;;;;;14.85;5.88;;;-0.90;99.90;;;0.18;100.00;100288.44;4944598;29;20094;-79
2024/01/19 02:06:50;;;;;;;10.80;5.88;;;-0.90;99.90;;;0.23;100.00;100288.81;4950091;28;20096;-79
2024/01/19 02:09:16;;;;;;;10.05;5.68;;;-0.90;99.90;;;0.25;100.00;100292.19;4955666;28;20042;-79
2024/01/19 02:11:42;;;;;;;11.82;5.90;;;-0.80;99.90;;;0.37;100.00;100300.81;4960603;28;20051;-79
2024/01/19 02:14:10;;;;;;;8.50;5.15;;;-0.80;99.90;;;0.20;100.00;100307.91;4954673;28;20345;-79
2024/01/19 02:16:36;;;;;;;11.77;5.72;;;-0.80;99.90;;;0.38;100.00;100307.84;4953828;28;20043;-79
2024/01/19 02:19:02;;;;;;;12.27;5.95;;;-0.80;99.90;;;0.39;100.00;100310.41;4960827;28;20507;-79
2024/01/19 02:21:29;;;;;;;13.13;5.82;;;-0.80;99.90;;;0.33;100.00;100304.81;4946938;29;20098;-79
2024/01/19 02:24:11;;;;;;;12.55;6.30;;;-0.80;99.90;;;0.37;100.00;100317.75;4950288;28;20107;-78
2024/01/19 02:26:38;;;;;;;9.88;5.82;;;-0.80;99.90;;;0.35;100.00;100325.13;4955536;28;20035;-79
2024/01/19 02:29:04;;;;;;;10.40;5.93;;;-0.90;99.90;;;0.30;100.00;100305.13;4943508;28;20050;-78
2024/01/19 02:31:31;;;;;;;10.65;5.85;;;-0.90;99.90;;;0.37;100.00;100308.84;4941261;29;20039;-79
2024/01/19 02:33:57;;;;;;;13.13;6.00;;;-1.00;99.90;;;0.30;100.00;100305.13;4950972;28;20042;-79
2024/01/19 02:36:23;;;;;;;13.18;6.22;;;-1.00;99.90;;;0.35;100.00;100311.72;4955666;28;20035;-79
2024/01/19 02:38:49;;;;;;;13.35;6.15;;;-1.00;99.90;;;0.27;100.00;100309.00;4945945;28;20424;-79
2024/01/19 02:41:15;;;;;;;10.45;5.60;;;-1.10;99.90;;;0.21;100.00;100304.22;4961113;28;20095;-79
2024/01/19 02:43:40;;;;;;;10.88;5.82;;;-1.10;99.90;;;0.18;100.00;100323.31;4962075;28;20086;-78
2024/01/19 02:46:08;;;;;;;11.55;5.60;;;-1.10;99.90;;;0.20;100.00;100315.97;4945226;29;20043;-78
2024/01/19 02:48:33;;;;;;;16.10;6.30;;;-1.00;99.90;;;0.29;100.00;100331.13;4945252;28;20534;-79
2024/01/19 02:50:59;;;;;;;12.30;6.30;;;-1.00;99.90;;;0.36;100.00;100315.22;4943931;29;20065;-79
2024/01/19 02:53:25;;;;;;;9.93;5.80;;;-0.90;99.90;;;0.41;100.00;100319.13;4954222;28;20047;-78
2024/01/19 02:55:50;;;;;;;10.73;6.22;;;-0.80;99.90;;;0.42;100.00;100303.88;4960911;28;20506;-79
2024/01/19 02:58:16;;;;;;;10.00;5.93;;;-0.70;99.90;;;0.65;100.00;100306.84;4943976;29;20040;-79
2024/01/19 03:00:42;;;;;;;11.65;6.22;;;-0.70;99.90;;;0.57;100.00;100302.28;4949316;28;20031;-79
2024/01/19 03:03:07;;;;;;;10.65;5.70;;;-0.80;99.90;;;0.43;100.00;100311.75;4947476;29;20043;-79
2024/01/19 03:05:33;;;;;;;13.85;6.00;;;-0.80;99.90;;;0.45;100.00;100322.34;4938504;28;20027;-80
2024/01/19 03:07:59;;;;;;;11.43;6.25;;;-0.90;99.90;;;0.38;100.00;100332.88;4947709;28;20100;-80
2024/01/19 03:10:25;;;;;;;13.60;6.50;;;-0.80;99.90;;;0.42;100.00;100317.31;4938173;29;20095;-80
2024/01/19 03:12:50;;;;;;;10.43;6.22;;;-0.80;99.90;;;0.40;100.00;100330.88;4963062;28;20043;-81
2024/01/19 03:15:16;;;;;;;11.15;6.68;;;-0.80;99.90;;;0.46;100.00;100326.72;4956931;28;20035;-79
2024/01/19 03:17:42;;;;;;;11.85;5.95;;;-0.80;99.90;;;0.42;100.00;100328.03;4940408;29;20035;-80
2024/01/19 03:20:08;;;;;;;12.98;6.57;;;-0.70;99.90;;;0.54;100.00;100344.72;4956767;28;20043;-80
2024/01/19 03:22:34;;;;;;;13.77;6.90;;;-0.80;99.90;;;0.41;100.00;100347.81;4943617;28;20042;-80
2024/01/19 03:24:59;;;;;;;11.95;6.85;;;-0.80;99.90;;;0.27;100.00;100341.19;4938141;28;20035;-80
2024/01/19 03:27:25;;;;;;;12.57;6.55;;;-0.70;99.90;;;0.43;100.00;100346.66;4944869;29;20055;-80
2024/01/19 03:29:51;;;;;;;11.05;6.57;;;-0.70;99.90;;;0.36;100.00;100350.97;4944319;28;20031;-80
2024/01/19 03:32:16;;;;;;;12.43;6.07;;;-0.80;99.90;;;0.31;100.00;100347.06;4937611;28;20044;-80
2024/01/19 03:34:42;;;;;;;14.10;6.57;;;-0.80;99.90;;;0.21;100.00;100349.84;4937891;28;20503;-78
2024/01/19 03:37:08;;;;;;;11.55;6.63;;;-0.90;99.90;;;0.21;100.00;100344.47;4941883;29;20046;-80
2024/01/19 03:39:34;;;;;;;13.43;6.30;;;-0.90;99.90;;;0.23;100.00;100340.66;4940754;29;20047;-80
2024/01/19 03:42:00;;;;;;;11.05;6.35;;;-0.90;99.90;;;0.21;100.00;100352.53;4944311;29;20094;-80
2024/01/19 03:44:26;;;;;;;12.95;6.65;;;-0.90;99.90;;;0.31;100.00;100344.38;4944194;29;20031;-80
2024/01/19 03:46:53;;;;;;;10.70;6.28;;;-0.90;99.90;;;0.35;100.00;100343.06;4947000;28;20043;-80
2024/01/19 03:49:19;;;;;;;14.05;6.15;;;-0.90;99.90;;;0.36;100.00;100345.59;4945977;29;20051;-80
2024/01/19 03:52:07;;;;;;;11.23;6.50;;;-0.90;99.90;;;0.37;100.00;100344.59;4943882;29;20045;-81
2024/01/19 03:54:33;;;;;;;13.43;5.97;;;-0.90;99.90;;;0.18;100.00;100337.59;4944592;28;20051;-80
2024/01/19 03:57:04;;;;;;;9.95;5.95;;;-0.90;99.90;;;0.21;100.00;100355.22;4962753;28;20090;-80
2024/01/19 03:59:30;;;;;;;12.85;6.20;;;-1.00;99.90;;;0.20;100.00;100350.84;4936787;29;20047;-80
2024/01/19 04:01:56;;;;;;;11.00;5.68;;;-1.00;99.90;;;0.09;100.00;100338.50;4944926;29;20039;-80
2024/01/19 04:04:23;;;;;;;9.60;5.68;;;-1.00;99.90;;;0.13;100.00;100358.66;4949553;29;20574;-80
2024/01/19 04:06:49;;;;;;;11.40;4.90;;;-1.10;99.90;;;0.10;100.00;100357.16;4945479;29;20035;-79
2024/01/19 04:09:17;;;;;;;11.02;5.30;;;-1.00;99.90;;;0.15;100.00;100359.38;4961065;28;20090;-76
2024/01/19 04:11:44;;;;;;;9.65;4.70;;;-1.00;99.90;;;0.25;100.00;100357.44;4947202;28;20043;-78
2024/01/19 04:14:10;;;;;;;10.27;4.93;;;-0.90;99.90;;;0.29;100.00;100360.66;4936981;29;20118;-78
2024/01/19 04:16:40;;;;;;;12.82;4.55;;;-0.90;99.90;;;0.39;100.00;100371.28;4934795;29;20082;-78
2024/01/19 04:19:06;;;;;;;11.48;4.07;;;-0.90;99.90;;;0.41;100.00;100371.97;4956140;28;20487;-78
2024/01/19 04:21:32;;;;;;;9.20;4.53;;;-0.90;99.90;;;0.35;100.00;100354.66;4935588;29;20035;-78
2024/01/19 04:23:58;;;;;;;8.57;4.45;;;-0.90;99.90;;;0.47;100.00;100379.41;4936855;29;20576;-78
2024/01/19 04:26:24;;;;;;;8.48;3.60;;;-0.90;99.90;;;0.37;100.00;100389.38;4946693;29;20043;-78
2024/01/19 04:28:50;;;;;;;8.05;3.80;;;-0.90;99.90;;;0.44;100.00;100387.78;4958932;28;20035;-79
2024/01/19 04:31:16;;;;;;;8.27;3.35;;;-0.90;99.90;;;0.59;100.00;100390.72;4952033;28;20399;-78
2024/01/19 04:33:41;;;;;;;11.32;3.80;;;-0.80;99.90;;;0.57;100.00;100384.66;4943154;28;20047;-80
2024/01/19 04:36:07;;;;;;;7.88;3.25;;;-0.90;99.90;;;0.51;100.00;100396.88;4965495;28;20434;-80
2024/01/19 04:38:33;;;;;;;7.60;3.70;;;-1.00;99.90;;;0.58;100.00;100397.09;4943109;29;20043;-80
2024/01/19 04:40:59;;;;;;;8.68;3.60;;;-1.10;99.90;;;0.46;100.00;100398.34;4940616;29;20080;-79
2024/01/19 04:43:25;;;;;;;13.20;3.40;;;-1.10;99.90;;;0.47;100.00;100397.34;4943028;29;20110;-79
2024/01/19 04:45:50;;;;;;;7.07;3.08;;;-1.10;99.90;;;0.40;100.00;100399.81;4950224;29;20031;-79
2024/01/19 04:48:16;;;;;;;11.13;3.92;;;-1.00;99.90;;;0.29;100.00;100395.53;4941302;29;20369;-78
2024/01/19 04:50:42;;;;;;;9.82;3.80;;;-1.00;99.90;;;0.25;100.00;100397.69;4945956;28;20043;-79
2024/01/19 04:53:08;;;;;;;10.43;4.28;;;-1.10;99.90;;;0.32;100.00;100402.44;4951251;28;20050;-79
2024/01/19 04:55:33;;;;;;;10.27;4.10;;;-1.10;99.90;;;0.22;100.00;100405.19;4948182;28;20031;-79
2024/01/19 04:57:59;;;;;;;11.02;4.00;;;-1.00;99.90;;;0.22;100.00;100408.72;4955954;28;20043;-79
2024/01/19 05:00:25;;;;;;;8.43;4.53;;;-1.10;99.90;;;0.34;100.00;100413.84;4942928;29;20048;-78
2024/01/19 05:02:51;;;;;;;12.60;5.03;;;-1.10;99.90;;;0.34;100.00;100408.47;4948204;28;20040;-79
2024/01/19 05:05:16;;;;;;;9.32;5.00;;;-1.20;99.90;;;0.25;100.00;100404.88;4940219;29;20044;-78
2024/01/19 05:07:42;;;;;;;8.32;4.57;;;-1.20;99.90;;;0.23;100.00;100410.41;4951247;28;20035;-79
2024/01/19 05:10:09;;;;;;;11.50;4.60;;;-1.10;99.90;;;0.14;100.00;100409.50;4940263;28;20032;-78
2024/01/19 05:12:34;;;;;;;14.65;5.03;;;-1.10;99.90;;;0.16;100.00;100405.81;4949530;29;20046;-78
2024/01/19 05:15:00;;;;;;;11.13;4.78;;;-1.10;99.90;;;0.02;100.00;100399.16;4940998;29;20032;-78
2024/01/19 05:17:26;;;;;;;10.95;5.30;;;-1.10;99.90;;;0.11;100.00;100419.69;4960954;28;20502;-78
2024/01/19 05:19:52;;;;;;;9.90;4.70;;;-1.20;99.90;;;0.21;100.00;100424.97;4958315;28;20031;-78
2024/01/19 05:22:17;;;;;;;9.68;4.90;;;-1.10;99.90;;;0.21;100.00;100423.16;4939871;29;20496;-78
2024/01/19 05:24:45;;;;;;;8.88;4.50;;;-1.20;99.90;;;0.28;100.00;100420.69;4954622;28;20554;-78
2024/01/19 05:27:11;;;;;;;7.72;4.32;;;-1.20;99.90;;;0.22;100.00;100427.53;4961449;28;20073;-79
2024/01/19 05:29:37;;;;;;;8.50;4.57;;;-1.20;99.90;;;0.22;100.00;100424.84;4951627;28;20035;-79
2024/01/19 05:32:03;;;;;;;10.25;4.80;;;-1.20;99.90;;;0.43;100.00;100437.09;4947996;28;20657;-79
2024/01/19 05:34:29;;;;;;;8.93;4.82;;;-1.20;99.90;;;0.34;100.00;100428.13;4946676;28;20451;-82
2024/01/19 05:36:55;;;;;;;11.88;4.53;;;-1.10;99.90;;;0.34;100.00;100432.63;4959936;28;20035;-78
2024/01/19 05:39:21;;;;;;;9.90;4.75;;;-1.10;99.90;;;0.34;100.00;100440.69;4941809;28;20092;-87
2024/01/19 05:41:47;;;;;;;8.32;4.85;;;-1.00;99.90;;;0.38;100.00;100445.59;4945015;29;20086;-79
2024/01/19 05:44:13;;;;;;;10.35;4.53;;;-1.00;99.90;;;0.41;100.00;100429.19;4934551;29;20452;-83
2024/01/19 05:46:40;;;;;;;10.68;4.22;;;-1.10;99.90;;;0.42;100.00;100444.28;4950469;29;20035;-83
2024/01/19 05:49:06;;;;;;;10.50;4.57;;;-1.00;99.90;;;0.37;100.00;100433.19;4939916;29;20042;-82
2024/01/19 05:51:31;;;;;;;10.52;4.40;;;-1.00;99.90;;;0.47;100.00;100442.97;4960856;28;20126;-79
2024/01/19 05:53:58;;;;;;;12.13;4.68;;;-0.90;99.90;;;0.45;100.00;100456.56;4961361;28;20407;-80
2024/01/19 05:56:25;;;;;;;11.50;4.50;;;-0.90;99.90;;;0.52;100.00;100446.88;4944940;28;20406;-80
2024/01/19 05:58:50;;;;;;;10.52;4.50;;;-0.90;99.90;;;0.37;100.00;100433.19;4939812;29;20307;-82
2024/01/19 06:01:16;;;;;;;11.63;4.78;;;-0.90;99.90;;;0.52;100.00;100454.06;4934746;29;20130;-82
2024/01/19 06:03:42;;;;;;;13.05;4.60;;;-0.80;99.90;;;0.47;100.00;100464.44;4943399;29;20058;-81
2024/01/19 06:06:08;;;;;;;7.63;4.70;;;-0.80;99.90;;;0.59;100.00;100457.84;4943393;28;20394;-81
2024/01/19 06:08:33;;;;;;;16.40;4.78;;;-0.70;99.90;;;0.50;100.00;100445.34;4955957;28;20674;-81
2024/01/19 06:10:59;;;;;;;8.50;4.65;;;-0.70;99.90;;;0.63;100.00;100453.84;4954613;28;20031;-81
2024/01/19 06:13:25;;;;;;;10.82;4.63;;;-0.70;99.90;;;0.59;100.00;100460.53;4945372;29;20365;-79
2024/01/19 06:15:51;;;;;;;10.20;4.20;;;-0.70;99.90;;;0.65;100.00;100451.84;4940779;29;20043;-87
2024/01/19 06:18:17;;;;;;;10.45;3.83;;;-0.70;99.90;;;0.57;100.00;100457.16;4945798;29;20035;-80
2024/01/19 06:20:45;;;;;;;10.38;4.38;;;-0.70;99.90;;;0.70;100.00;100471.00;4969836;28;20043;-80
2024/01/19 06:23:12;;;;;;;9.00;4.97;;;-0.60;99.90;;;0.73;100.00;100467.19;4944469;28;20047;-81
2024/01/19 06:25:40;;;;;;;8.57;4.57;;;-0.50;99.90;;;0.86;100.00;100472.97;4950369;29;20066;-81
2024/01/19 06:28:06;;;;;;;9.48;4.70;;;-0.40;99.90;;;0.90;100.00;100478.88;4938729;29;20119;-79
2024/01/19 06:30:33;;;;;;;9.55;4.10;;;-0.40;99.90;;;0.90;100.00;100486.06;4943802;29;20059;-80
2024/01/19 06:32:59;;;;;;;9.50;4.15;;;-0.30;99.90;;;0.98;100.00;100489.66;4946225;28;21206;-79
2024/01/19 06:35:25;;;;;;;10.20;4.13;;;-0.30;99.90;;;0.92;100.00;100484.06;4950026;29;20047;-80
2024/01/19 06:37:51;;;;;;;9.80;4.43;;;-0.20;99.90;;;0.89;100.00;100506.75;4957608;28;20118;-78
2024/01/19 06:40:16;;;;;;;8.18;3.72;;;-0.30;99.90;;;0.86;100.00;100501.69;4940730;28;20047;-78
2024/01/19 06:42:46;;;;;;;10.18;4.43;;;-0.30;99.90;;;0.81;100.00;100493.25;4950593;28;20338;-80
2024/01/19 06:45:16;;;;;;;6.90;4.03;;;-0.30;99.90;;;0.88;100.00;100507.75;4959400;28;20031;-77
2024/01/19 06:47:42;;;;;;;8.77;4.50;;;-0.30;99.90;;;0.87;100.00;100514.13;4940275;29;20131;-80
2024/01/19 06:50:08;;;;;;;6.38;4.47;;;-0.30;99.90;;;0.86;100.00;100512.44;4953566;28;20134;-81
2024/01/19 06:52:34;;;;;;;8.70;4.50;;;-0.30;99.90;;;0.98;100.00;100516.53;4948491;28;20436;-81
2024/01/19 06:55:00;;;;;;;9.52;4.70;;;-0.30;99.90;;;0.90;100.00;100523.69;4944290;28;20099;-80
2024/01/19 06:57:26;;;;;;;11.30;4.22;;;-0.40;99.90;;;0.95;100.00;100516.03;4938305;29;20039;-81
2024/01/19 06:59:51;;;;;;;12.30;4.05;;;-0.40;99.90;;;0.77;100.00;100530.31;4945165;29;20039;-80
2024/01/19 07:02:18;;;;;;;11.98;4.53;;;-0.40;99.90;;;0.76;100.00;100527.78;4942844;29;20048;-80
2024/01/19 07:04:44;;;;;;;8.40;4.50;;;-0.40;99.90;;;0.84;100.00;100531.38;4950690;28;20039;-79
2024/01/19 07:07:09;;;;;;;9.38;4.45;;;-0.40;99.90;;;0.92;100.00;100540.50;4949147;29;20093;-81
2024/01/19 07:09:36;;;;;;;8.50;4.57;;;-0.50;99.90;;;0.76;100.00;100543.91;4951385;28;20479;-79
2024/01/19 07:12:03;;;;;;;10.95;4.50;;;-0.50;99.90;;;0.90;100.00;100572.03;4941921;29;20035;-80
2024/01/19 07:14:29;;;;;;;12.60;5.13;;;-0.50;99.90;;;0.71;100.00;100573.91;4941101;29;20043;-83
2024/01/19 07:16:55;;;;;;;10.85;5.28;;;-0.40;99.90;;;0.86;100.00;100566.16;4946584;28;20101;-84
2024/01/19 07:19:21;;;;;;;10.43;5.22;;;-0.40;99.90;;;0.95;100.00;100573.28;4954046;29;20123;-85
2024/01/19 07:21:46;;;;;;;11.13;5.35;;;-0.40;99.90;;;0.88;100.00;100563.31;4944544;28;20039;-86
2024/01/19 07:24:12;;;;;;;14.18;5.50;;;-0.30;99.90;;;0.97;100.00;100568.59;4954128;29;20054;-86
2024/01/19 07:26:39;;;;;;;8.98;5.18;;;-0.30;99.90;;;0.92;100.00;100586.16;4938492;29;20066;-84
2024/01/19 07:29:09;;;;;;;10.55;5.78;;;-0.30;99.90;;;0.96;100.00;100596.44;4943897;28;20039;-80
2024/01/19 07:31:38;;;;;;;10.35;5.65;;;-0.30;99.90;;;0.93;100.00;100594.06;4943697;28;20122;-81
2024/01/19 07:34:04;;;;;;;12.40;5.88;;;-0.30;99.90;;;0.84;100.00;100589.66;4943996;29;20044;-83
2024/01/19 07:36:31;;;;;;;10.65;5.85;;;-0.30;99.90;;;0.97;100.00;100600.81;4953229;29;20575;-83
2024/01/19 07:38:57;;;;;;;10.43;6.28;;;-0.30;99.90;;;0.93;100.00;100607.50;4943283;28;20024;-84
2024/01/19 07:41:23;;;;;;;12.55;6.97;;;-0.30;99.90;;;0.96;100.00;100593.75;4948809;28;20061;-84
2024/01/19 07:43:49;;;;;;;10.20;6.07;;;-0.30;99.90;;;1.00;100.00;100611.25;4943467;28;20502;-83
2024/01/19 07:46:15;;;;;;;10.98;5.40;;;-0.30;99.90;;;0.96;100.00;100606.38;4954111;28;20126;-82
2024/01/19 07:48:41;;;;;;;9.45;6.07;;;-0.30;99.90;;;0.74;100.00;100594.22;4953968;28;20047;-82
2024/01/19 07:51:06;;;;;;;12.88;5.97;;;-0.40;99.90;;;0.96;100.00;100609.88;4945690;28;20039;-84
2024/01/19 07:53:32;;;;;;;11.45;6.85;;;-0.40;99.90;;;0.94;100.00;100609.19;4952702;28;20039;-83
2024/01/19 07:55:58;;;;;;;13.23;7.60;;;-0.40;99.90;;;0.86;100.00;100609.13;4940858;29;20050;-80
2024/01/19 07:58:25;;;;;;;14.50;7.38;;;-0.40;99.90;;;0.93;100.00;100623.63;4949681;28;20139;-82
2024/01/19 08:00:50;;;;;;;11.82;7.22;;;-0.40;99.90;;;0.37;100.00;100622.88;4949514;29;20082;-81
2024/01/19 08:03:18;;;;;;;9.88;7.00;;;-0.40;99.90;;;0.34;100.00;100632.09;4962646;28;20430;-80
2024/01/19 08:05:44;;;;;;;12.27;8.20;;;-0.30;99.90;;;0.79;100.00;100626.84;4948347;28;20223;-81
2024/01/19 08:08:10;;;;;;;12.13;7.30;;;-0.30;99.90;;;0.68;100.00;100618.03;4942047;28;20040;-82
2024/01/19 08:10:36;;;;;;;13.25;7.80;;;-0.30;99.90;;;1.03;100.00;100636.13;4942680;29;20042;-82
2024/01/19 08:13:02;;;;;;;13.07;7.53;;;-0.20;99.90;;;1.22;100.00;100640.50;4964295;28;20079;-83
2024/01/19 08:15:28;;;;;;;11.85;8.18;;;-0.10;99.90;;;1.12;100.00;100646.81;4951778;29;20032;-86
2024/01/19 08:17:55;;;;;;;13.00;8.13;;;-0.10;99.90;;;0.94;100.00;100646.81;4966059;28;20458;-83
2024/01/19 08:20:24;;;;;;;14.50;7.97;;;-0.10;99.90;;;1.13;100.00;100645.81;4967360;28;20027;-88
2024/01/19 08:22:53;;;;;;;12.00;7.78;;;-0.10;99.90;;;1.20;100.00;100648.72;4956561;28;20502;-90
2024/01/19 08:25:19;;;;;;;10.15;7.18;;;0.00;99.90;;;1.34;100.00;100651.88;4958043;28;20403;-90
2024/01/19 08:27:46;;;;;;;11.55;7.82;;;0.00;99.90;;;1.37;100.00;100681.13;4951438;28;20137;-87
2024/01/19 08:30:12;;;;;;;14.50;7.03;;;0.00;99.90;;;1.32;100.00;100662.75;4966616;28;20031;-83
2024/01/19 08:32:38;;;;;;;12.45;7.97;;;0.10;99.90;;;1.35;100.00;100648.19;4966276;28;20051;-85
2024/01/19 08:35:08;;;;;;;11.73;7.50;;;0.20;99.90;;;1.55;100.00;100683.78;4970846;28;20094;-89
2024/01/19 08:37:39;;;;;;;11.82;6.65;;;0.30;99.90;;;1.48;100.00;100672.78;4966801;28;20036;-90
2024/01/19 08:40:07;;;;;;;10.38;6.68;;;0.30;99.90;;;1.54;100.00;100687.47;4961940;28;20035;-84
2024/01/19 08:42:34;;;;;;;13.30;6.97;;;0.40;99.90;;;1.58;100.00;100684.28;4966663;28;20050;-88
2024/01/19 08:44:59;;;;;;;11.38;6.40;;;0.40;99.90;;;1.63;100.00;100689.22;4972025;28;20114;-88
2024/01/19 08:47:26;;;;;;;12.75;6.53;;;0.50;99.90;;;1.80;100.00;100694.72;4953822;28;20051;-82
2024/01/19 08:49:52;;;;;;;10.88;7.90;;;0.50;99.90;;;1.98;100.00;100705.41;4954320;28;20054;-84
2024/01/19 08:52:18;;;;;;;11.80;6.97;;;0.60;99.90;;;1.88;100.00;100702.00;4963050;28;20039;-84
2024/01/19 08:54:43;;;;;;;12.30;7.20;;;0.60;99.90;;;1.78;100.00;100699.41;4953173;29;20050;-81
2024/01/19 08:57:09;;;;;;;15.18;8.48;;;0.70;99.90;;;1.93;100.00;100702.38;4951857;28;20043;-83
2024/01/19 08:59:35;;;;;;;15.68;8.40;;;0.70;99.90;;;2.03;100.00;100721.09;4936192;29;20040;-81
2024/01/19 09:02:00;;;;;;;13.40;8.73;;;0.70;99.90;;;2.01;100.00;100732.00;4949860;29;20069;-81
2024/01/19 09:04:27;;;;;;;10.82;8.27;;;0.70;99.90;;;2.00;100.00;100712.34;4949058;29;20046;-81
2024/01/19 09:06:55;;;;;;;17.33;9.13;;;0.70;99.90;;;1.91;100.00;100709.75;4947115;29;20039;-86
2024/01/19 09:09:22;;;;;;;15.48;9.25;;;0.80;99.90;;;2.14;100.00;100724.38;4951535;28;20039;-82
2024/01/19 09:11:47;;;;;;;14.75;8.77;;;0.90;99.90;;;1.99;100.00;100731.31;4963952;28;20047;-82
2024/01/19 09:14:13;;;;;;;14.32;9.77;;;0.90;99.90;;;2.22;100.00;100738.88;4950822;28;20036;-85
2024/01/19 09:16:44;;;;;;;16.08;9.82;;;0.90;99.90;;;2.43;100.00;100741.16;4934511;29;20086;-85
2024/01/19 09:19:13;;;;;;;17.45;9.70;;;1.00;99.90;;;2.42;100.00;100740.31;4950891;29;20055;-83
2024/01/19 09:21:39;;;;;;;15.63;8.95;;;1.00;99.90;;;2.20;100.00;100727.41;4954090;28;20114;-84
2024/01/19 09:24:06;;;;;;;17.15;9.50;;;1.00;99.90;;;2.50;100.00;100733.28;4954489;28;20070;-85
2024/01/19 09:26:32;;;;;;;13.65;8.60;;;1.10;99.90;;;2.68;100.00;100744.81;4971276;28;20079;-85
2024/01/19 09:28:58;;;;;;;12.73;8.07;;;1.20;99.90;;;2.39;100.00;100756.81;4958377;28;20046;-83
2024/01/19 09:31:25;;;;;;;17.80;8.50;;;1.20;99.90;;;2.71;100.00;100759.78;4948083;29;20032;-82
2024/01/19 09:33:50;;;;;;;13.63;8.52;;;1.30;99.90;;;2.61;100.00;100765.31;4951013;28;20035;-82
2024/01/19 09:36:16;;;;;;;15.88;8.63;;;1.40;99.90;;;2.78;100.00;100781.56;4950531;28;20470;-78
2024/01/19 09:38:43;;;;;;;15.50;7.43;;;1.50;99.90;;;2.61;100.00;100759.91;4952337;28;20411;-82
2024/01/19 09:41:37;;;;;;;10.90;7.47;;;1.50;99.90;;;2.96;100.00;100794.91;4950422;29;20082;-79
2024/01/19 09:44:12;;;;;;;13.95;7.85;;;1.60;99.90;;;2.98;100.00;100769.50;4950743;29;20041;-81
2024/01/19 09:46:52;;;;;;;13.88;7.68;;;1.80;99.90;;;3.23;100.00;100784.88;4947965;29;20047;-81
2024/01/19 09:50:02;;;;;;;17.20;7.78;;;2.10;99.90;;;3.36;100.00;100776.31;4948907;28;20039;-80
2024/01/19 09:52:58;;;;;;;;;;;2.60;99.90;;;3.68;100.00;100788.13;4939199;28;20043;-83
2024/01/19 09:55:26;;;;;;;18.65;7.85;;;3.20;99.90;;;4.12;100.00;100787.78;4945540;28;19918;-84
2024/01/19 09:57:52;;;;;;;12.05;6.85;;;3.90;99.90;;;4.74;100.00;100783.56;4951011;29;20402;-83
2024/01/19 10:00:19;;;;;;;9.05;6.53;;;4.60;99.90;;;5.35;98.42;100783.97;4950477;28;20101;-83
2024/01/19 10:02:52;;;;;;;11.10;6.80;;;5.00;99.90;;;5.51;92.93;100772.19;4940687;29;20109;-82
2024/01/19 10:05:21;;;;;;;12.75;5.63;;;5.10;99.90;;;6.06;87.57;100764.81;4940489;28;20032;-82
2024/01/19 10:07:49;;;;;;;12.30;6.68;;;5.30;99.90;;;6.86;82.15;100754.25;4942883;29;20040;-83
2024/01/19 10:10:16;;;;;;;9.10;5.88;;;5.60;99.90;;;7.38;77.47;100750.63;4952485;29;20044;-81